sensor_id;sensor_type;location;lat;lon;timestamp;P1;durP1;ratioP1;P2;durP2;ratioP2
39094;SDS011;24840;47.508;19.376;2023-02-28T00:00:13;23.00;;;12.73;;
39094;SDS011;24840;47.508;19.376;2023-02-28T00:02:40;19.60;;;11.77;;
39094;SDS011;24840;47.508;19.376;2023-02-28T00:05:07;20.67;;;12.90;;
39094;SDS011;24840;47.508;19.376;2023-02-28T00:07:33;20.50;;;12.07;;
39094;SDS011;24840;47.508;19.376;2023-02-28T00:10:00;17.17;;;11.63;;
39094;SDS011;24840;47.508;19.376;2023-02-28T00:12:26;18.73;;;11.17;;
39094;SDS011;24840;47.508;19.376;2023-02-28T00:14:52;21.50;;;10.50;;
39094;SDS011;24840;47.508;19.376;2023-02-28T00:17:18;14.97;;;9.70;;
39094;SDS011;24840;47.508;19.376;2023-02-28T00:19:48;15.97;;;10.43;;
39094;SDS011;24840;47.508;19.376;2023-02-28T00:22:16;15.60;;;9.80;;
39094;SDS011;24840;47.508;19.376;2023-02-28T00:24:43;16.60;;;9.53;;
39094;SDS011;24840;47.508;19.376;2023-02-28T00:27:09;14.97;;;9.33;;
39094;SDS011;24840;47.508;19.376;2023-02-28T00:29:35;17.33;;;10.23;;
39094;SDS011;24840;47.508;19.376;2023-02-28T00:32:02;16.53;;;8.97;;
39094;SDS011;24840;47.508;19.376;2023-02-28T00:34:28;13.43;;;8.50;;
39094;SDS011;24840;47.508;19.376;2023-02-28T00:36:54;15.70;;;8.27;;
39094;SDS011;24840;47.508;19.376;2023-02-28T00:39:20;12.30;;;7.47;;
39094;SDS011;24840;47.508;19.376;2023-02-28T00:41:46;10.63;;;7.43;;
39094;SDS011;24840;47.508;19.376;2023-02-28T00:44:11;10.53;;;7.97;;
39094;SDS011;24840;47.508;19.376;2023-02-28T00:46:37;16.83;;;9.13;;
39094;SDS011;24840;47.508;19.376;2023-02-28T00:49:03;13.77;;;9.53;;
39094;SDS011;24840;47.508;19.376;2023-02-28T00:51:29;17.43;;;9.20;;
39094;SDS011;24840;47.508;19.376;2023-02-28T00:53:54;16.03;;;9.73;;
39094;SDS011;24840;47.508;19.376;2023-02-28T00:56:20;16.30;;;10.33;;
39094;SDS011;24840;47.508;19.376;2023-02-28T00:58:59;16.53;;;9.37;;
39094;SDS011;24840;47.508;19.376;2023-02-28T01:01:24;14.50;;;9.90;;
39094;SDS011;24840;47.508;19.376;2023-02-28T01:03:50;15.23;;;10.17;;
39094;SDS011;24840;47.508;19.376;2023-02-28T01:06:16;15.37;;;9.07;;
39094;SDS011;24840;47.508;19.376;2023-02-28T01:08:42;17.73;;;9.50;;
39094;SDS011;24840;47.508;19.376;2023-02-28T01:11:09;15.53;;;9.30;;
39094;SDS011;24840;47.508;19.376;2023-02-28T01:13:35;15.53;;;9.53;;
39094;SDS011;24840;47.508;19.376;2023-02-28T01:16:01;15.73;;;10.47;;
39094;SDS011;24840;47.508;19.376;2023-02-28T01:18:27;14.83;;;10.37;;
39094;SDS011;24840;47.508;19.376;2023-02-28T01:20:53;26.00;;;11.13;;
39094;SDS011;24840;47.508;19.376;2023-02-28T01:23:20;20.23;;;11.97;;
39094;SDS011;24840;47.508;19.376;2023-02-28T01:25:48;19.13;;;11.57;;
39094;SDS011;24840;47.508;19.376;2023-02-28T01:28:15;23.03;;;12.50;;
39094;SDS011;24840;47.508;19.376;2023-02-28T01:30:41;22.37;;;13.13;;
39094;SDS011;24840;47.508;19.376;2023-02-28T01:33:07;20.67;;;12.73;;
39094;SDS011;24840;47.508;19.376;2023-02-28T01:35:33;20.27;;;13.90;;
39094;SDS011;24840;47.508;19.376;2023-02-28T01:37:59;19.47;;;12.77;;
39094;SDS011;24840;47.508;19.376;2023-02-28T01:40:25;26.63;;;14.20;;
39094;SDS011;24840;47.508;19.376;2023-02-28T01:42:51;26.77;;;13.37;;
39094;SDS011;24840;47.508;19.376;2023-02-28T01:45:27;26.83;;;14.60;;
39094;SDS011;24840;47.508;19.376;2023-02-28T01:47:56;18.27;;;11.80;;
39094;SDS011;24840;47.508;19.376;2023-02-28T01:50:27;19.43;;;12.23;;
39094;SDS011;24840;47.508;19.376;2023-02-28T01:52:57;20.93;;;12.03;;
39094;SDS011;24840;47.508;19.376;2023-02-28T01:55:26;18.63;;;12.27;;
39094;SDS011;24840;47.508;19.376;2023-02-28T01:57:58;18.50;;;12.07;;
39094;SDS011;24840;47.508;19.376;2023-02-28T02:00:27;17.70;;;11.23;;
39094;SDS011;24840;47.508;19.376;2023-02-28T02:02:58;17.93;;;10.70;;
39094;SDS011;24840;47.508;19.376;2023-02-28T02:05:30;18.43;;;10.47;;
39094;SDS011;24840;47.508;19.376;2023-02-28T02:07:57;22.93;;;11.17;;
39094;SDS011;24840;47.508;19.376;2023-02-28T02:10:39;19.13;;;10.87;;
39094;SDS011;24840;47.508;19.376;2023-02-28T02:13:14;24.10;;;11.87;;
39094;SDS011;24840;47.508;19.376;2023-02-28T02:15:46;21.63;;;11.80;;
39094;SDS011;24840;47.508;19.376;2023-02-28T02:41:19;17.83;;;10.37;;
39094;SDS011;24840;47.508;19.376;2023-02-28T02:44:02;17.55;;;10.73;;
39094;SDS011;24840;47.508;19.376;2023-02-28T02:46:32;21.13;;;12.30;;
39094;SDS011;24840;47.508;19.376;2023-02-28T02:49:03;21.00;;;11.27;;
39094;SDS011;24840;47.508;19.376;2023-02-28T02:51:33;20.20;;;11.00;;
39094;SDS011;24840;47.508;19.376;2023-02-28T02:54:07;18.90;;;11.10;;
39094;SDS011;24840;47.508;19.376;2023-02-28T02:56:36;17.80;;;10.67;;
39094;SDS011;24840;47.508;19.376;2023-02-28T02:59:07;20.17;;;11.90;;
39094;SDS011;24840;47.508;19.376;2023-02-28T03:01:36;16.83;;;11.13;;
39094;SDS011;24840;47.508;19.376;2023-02-28T03:04:11;17.57;;;10.50;;
39094;SDS011;24840;47.508;19.376;2023-02-28T03:06:43;16.93;;;10.53;;
39094;SDS011;24840;47.508;19.376;2023-02-28T03:09:09;14.23;;;10.17;;
39094;SDS011;24840;47.508;19.376;2023-02-28T03:11:35;15.73;;;11.07;;
39094;SDS011;24840;47.508;19.376;2023-02-28T03:19:45;15.90;;;10.63;;
39094;SDS011;24840;47.508;19.376;2023-02-28T03:33:54;17.93;;;10.23;;
39094;SDS011;24840;47.508;19.376;2023-02-28T03:36:39;18.07;;;10.47;;
39094;SDS011;24840;47.508;19.376;2023-02-28T03:39:17;19.03;;;10.80;;
39094;SDS011;24840;47.508;19.376;2023-02-28T03:41:52;16.23;;;10.63;;
39094;SDS011;24840;47.508;19.376;2023-02-28T03:44:26;15.17;;;10.03;;
39094;SDS011;24840;47.508;19.376;2023-02-28T03:47:07;17.40;;;11.13;;
39094;SDS011;24840;47.508;19.376;2023-02-28T03:49:42;17.07;;;11.00;;
39094;SDS011;24840;47.508;19.376;2023-02-28T03:52:15;15.67;;;10.57;;
39094;SDS011;24840;47.508;19.376;2023-02-28T03:54:45;13.53;;;10.03;;
39094;SDS011;24840;47.508;19.376;2023-02-28T03:58:17;16.23;;;10.60;;
39094;SDS011;24840;47.508;19.376;2023-02-28T04:00:34;16.30;;;9.90;;
39094;SDS011;24840;47.508;19.376;2023-02-28T04:03:04;14.70;;;10.37;;
39094;SDS011;24840;47.508;19.376;2023-02-28T04:05:30;19.40;;;10.10;;
39094;SDS011;24840;47.508;19.376;2023-02-28T04:08:06;15.67;;;9.87;;
39094;SDS011;24840;47.508;19.376;2023-02-28T04:10:32;14.17;;;9.47;;
39094;SDS011;24840;47.508;19.376;2023-02-28T04:12:58;16.43;;;11.23;;
39094;SDS011;24840;47.508;19.376;2023-02-28T04:15:24;16.50;;;10.60;;
39094;SDS011;24840;47.508;19.376;2023-02-28T04:17:52;17.67;;;8.90;;
39094;SDS011;24840;47.508;19.376;2023-02-28T04:20:18;18.70;;;11.03;;
39094;SDS011;24840;47.508;19.376;2023-02-28T04:22:44;16.50;;;9.70;;
39094;SDS011;24840;47.508;19.376;2023-02-28T04:25:09;18.37;;;9.97;;
39094;SDS011;24840;47.508;19.376;2023-02-28T04:27:35;16.07;;;10.53;;
39094;SDS011;24840;47.508;19.376;2023-02-28T04:30:01;15.43;;;10.90;;
39094;SDS011;24840;47.508;19.376;2023-02-28T04:32:27;16.70;;;10.63;;
39094;SDS011;24840;47.508;19.376;2023-02-28T04:34:53;15.17;;;9.90;;
39094;SDS011;24840;47.508;19.376;2023-02-28T04:37:19;19.63;;;10.60;;
39094;SDS011;24840;47.508;19.376;2023-02-28T04:39:44;18.10;;;11.07;;
39094;SDS011;24840;47.508;19.376;2023-02-28T04:42:10;18.13;;;10.63;;
39094;SDS011;24840;47.508;19.376;2023-02-28T04:44:37;19.77;;;10.80;;
39094;SDS011;24840;47.508;19.376;2023-02-28T04:47:03;17.97;;;10.03;;
39094;SDS011;24840;47.508;19.376;2023-02-28T04:49:28;16.30;;;10.33;;
39094;SDS011;24840;47.508;19.376;2023-02-28T04:51:54;14.90;;;10.03;;
39094;SDS011;24840;47.508;19.376;2023-02-28T04:54:20;14.53;;;9.47;;
39094;SDS011;24840;47.508;19.376;2023-02-28T04:56:46;15.77;;;10.00;;
39094;SDS011;24840;47.508;19.376;2023-02-28T04:59:14;22.30;;;10.30;;
39094;SDS011;24840;47.508;19.376;2023-02-28T05:01:40;13.10;;;9.30;;
39094;SDS011;24840;47.508;19.376;2023-02-28T05:04:10;16.03;;;9.97;;
39094;SDS011;24840;47.508;19.376;2023-02-28T05:06:35;13.87;;;9.53;;
39094;SDS011;24840;47.508;19.376;2023-02-28T05:09:01;16.40;;;9.23;;
39094;SDS011;24840;47.508;19.376;2023-02-28T05:11:31;18.47;;;9.93;;
39094;SDS011;24840;47.508;19.376;2023-02-28T05:14:01;14.93;;;8.57;;
39094;SDS011;24840;47.508;19.376;2023-02-28T05:16:28;15.60;;;8.83;;
39094;SDS011;24840;47.508;19.376;2023-02-28T05:18:55;14.70;;;8.07;;
39094;SDS011;24840;47.508;19.376;2023-02-28T05:24:05;13.27;;;7.60;;
39094;SDS011;24840;47.508;19.376;2023-02-28T05:26:36;14.53;;;7.77;;
39094;SDS011;24840;47.508;19.376;2023-02-28T05:29:03;13.27;;;8.20;;
39094;SDS011;24840;47.508;19.376;2023-02-28T05:31:30;13.93;;;8.23;;
39094;SDS011;24840;47.508;19.376;2023-02-28T05:33:56;14.60;;;8.10;;
39094;SDS011;24840;47.508;19.376;2023-02-28T05:36:21;16.40;;;8.57;;
39094;SDS011;24840;47.508;19.376;2023-02-28T05:38:47;10.73;;;7.73;;
39094;SDS011;24840;47.508;19.376;2023-02-28T05:41:14;14.00;;;7.67;;
39094;SDS011;24840;47.508;19.376;2023-02-28T05:43:40;11.80;;;7.23;;
39094;SDS011;24840;47.508;19.376;2023-02-28T05:46:06;10.87;;;7.63;;
39094;SDS011;24840;47.508;19.376;2023-02-28T05:48:35;13.33;;;8.23;;
39094;SDS011;24840;47.508;19.376;2023-02-28T05:51:02;14.30;;;8.60;;
39094;SDS011;24840;47.508;19.376;2023-02-28T05:53:28;13.60;;;7.63;;
39094;SDS011;24840;47.508;19.376;2023-02-28T05:55:55;10.70;;;6.53;;
39094;SDS011;24840;47.508;19.376;2023-02-28T05:58:21;12.67;;;8.43;;
39094;SDS011;24840;47.508;19.376;2023-02-28T06:00:47;12.90;;;7.13;;
39094;SDS011;24840;47.508;19.376;2023-02-28T06:03:13;11.57;;;7.50;;
39094;SDS011;24840;47.508;19.376;2023-02-28T06:05:39;13.33;;;7.67;;
39094;SDS011;24840;47.508;19.376;2023-02-28T06:08:04;13.13;;;7.30;;
39094;SDS011;24840;47.508;19.376;2023-02-28T06:10:34;13.53;;;6.93;;
39094;SDS011;24840;47.508;19.376;2023-02-28T06:13:00;11.97;;;6.70;;
39094;SDS011;24840;47.508;19.376;2023-02-28T06:15:30;10.43;;;6.97;;
39094;SDS011;24840;47.508;19.376;2023-02-28T06:17:57;14.67;;;8.10;;
39094;SDS011;24840;47.508;19.376;2023-02-28T06:20:23;14.83;;;8.23;;
39094;SDS011;24840;47.508;19.376;2023-02-28T06:22:51;13.43;;;7.93;;
39094;SDS011;24840;47.508;19.376;2023-02-28T06:25:17;10.10;;;7.07;;
39094;SDS011;24840;47.508;19.376;2023-02-28T06:27:43;12.07;;;7.57;;
39094;SDS011;24840;47.508;19.376;2023-02-28T06:30:09;12.97;;;7.93;;
39094;SDS011;24840;47.508;19.376;2023-02-28T06:32:36;10.57;;;7.00;;
39094;SDS011;24840;47.508;19.376;2023-02-28T06:35:02;10.77;;;6.97;;
39094;SDS011;24840;47.508;19.376;2023-02-28T06:37:28;11.63;;;7.53;;
39094;SDS011;24840;47.508;19.376;2023-02-28T06:39:56;11.10;;;5.93;;
39094;SDS011;24840;47.508;19.376;2023-02-28T06:42:23;13.57;;;7.20;;
39094;SDS011;24840;47.508;19.376;2023-02-28T06:44:54;11.93;;;6.57;;
39094;SDS011;24840;47.508;19.376;2023-02-28T06:47:20;11.00;;;6.17;;
39094;SDS011;24840;47.508;19.376;2023-02-28T06:49:47;10.40;;;6.40;;
39094;SDS011;24840;47.508;19.376;2023-02-28T06:52:13;11.63;;;6.83;;
39094;SDS011;24840;47.508;19.376;2023-02-28T06:54:39;9.90;;;6.23;;
39094;SDS011;24840;47.508;19.376;2023-02-28T06:57:05;10.13;;;6.30;;
39094;SDS011;24840;47.508;19.376;2023-02-28T06:59:31;12.33;;;6.73;;
39094;SDS011;24840;47.508;19.376;2023-02-28T07:01:56;9.93;;;6.13;;
39094;SDS011;24840;47.508;19.376;2023-02-28T07:04:22;8.60;;;5.53;;
39094;SDS011;24840;47.508;19.376;2023-02-28T07:06:48;10.60;;;6.33;;
39094;SDS011;24840;47.508;19.376;2023-02-28T07:09:14;9.27;;;6.17;;
39094;SDS011;24840;47.508;19.376;2023-02-28T07:11:40;13.50;;;5.97;;
39094;SDS011;24840;47.508;19.376;2023-02-28T07:14:07;11.93;;;6.40;;
39094;SDS011;24840;47.508;19.376;2023-02-28T07:16:33;11.60;;;6.90;;
39094;SDS011;24840;47.508;19.376;2023-02-28T07:19:00;12.07;;;7.13;;
39094;SDS011;24840;47.508;19.376;2023-02-28T07:21:26;13.10;;;7.10;;
39094;SDS011;24840;47.508;19.376;2023-02-28T07:23:51;12.50;;;6.87;;
39094;SDS011;24840;47.508;19.376;2023-02-28T07:26:18;10.93;;;6.90;;
39094;SDS011;24840;47.508;19.376;2023-02-28T07:28:45;14.87;;;7.37;;
39094;SDS011;24840;47.508;19.376;2023-02-28T07:31:12;36.13;;;8.03;;
39094;SDS011;24840;47.508;19.376;2023-02-28T07:33:39;18.10;;;6.50;;
39094;SDS011;24840;47.508;19.376;2023-02-28T07:36:09;10.27;;;6.57;;
39094;SDS011;24840;47.508;19.376;2023-02-28T07:38:41;196.63;;;25.30;;
39094;SDS011;24840;47.508;19.376;2023-02-28T07:41:09;10.20;;;6.13;;
39094;SDS011;24840;47.508;19.376;2023-02-28T07:43:35;14.00;;;6.00;;
39094;SDS011;24840;47.508;19.376;2023-02-28T07:46:02;8.60;;;5.40;;
39094;SDS011;24840;47.508;19.376;2023-02-28T07:48:28;10.97;;;5.70;;
39094;SDS011;24840;47.508;19.376;2023-02-28T07:50:55;12.47;;;6.93;;
39094;SDS011;24840;47.508;19.376;2023-02-28T07:53:21;11.50;;;7.03;;
39094;SDS011;24840;47.508;19.376;2023-02-28T07:55:47;19.97;;;6.43;;
39094;SDS011;24840;47.508;19.376;2023-02-28T07:58:13;11.27;;;6.50;;
39094;SDS011;24840;47.508;19.376;2023-02-28T08:00:39;16.30;;;6.60;;
39094;SDS011;24840;47.508;19.376;2023-02-28T08:03:05;9.37;;;6.30;;
39094;SDS011;24840;47.508;19.376;2023-02-28T08:05:31;10.57;;;5.30;;
39094;SDS011;24840;47.508;19.376;2023-02-28T08:07:56;10.17;;;6.20;;
39094;SDS011;24840;47.508;19.376;2023-02-28T08:10:22;7.80;;;5.53;;
39094;SDS011;24840;47.508;19.376;2023-02-28T08:12:49;12.37;;;5.67;;
39094;SDS011;24840;47.508;19.376;2023-02-28T08:15:14;11.97;;;5.97;;
39094;SDS011;24840;47.508;19.376;2023-02-28T08:17:40;11.60;;;6.63;;
39094;SDS011;24840;47.508;19.376;2023-02-28T08:20:06;7.47;;;4.57;;
39094;SDS011;24840;47.508;19.376;2023-02-28T08:22:32;7.13;;;4.33;;
39094;SDS011;24840;47.508;19.376;2023-02-28T08:24:58;8.67;;;4.33;;
39094;SDS011;24840;47.508;19.376;2023-02-28T08:27:24;7.53;;;4.13;;
39094;SDS011;24840;47.508;19.376;2023-02-28T08:29:49;6.97;;;4.37;;
39094;SDS011;24840;47.508;19.376;2023-02-28T08:32:15;11.43;;;6.90;;
39094;SDS011;24840;47.508;19.376;2023-02-28T08:34:41;9.17;;;4.83;;
39094;SDS011;24840;47.508;19.376;2023-02-28T08:37:06;9.10;;;4.67;;
39094;SDS011;24840;47.508;19.376;2023-02-28T08:39:35;8.83;;;4.90;;
39094;SDS011;24840;47.508;19.376;2023-02-28T08:42:01;14.17;;;5.77;;
39094;SDS011;24840;47.508;19.376;2023-02-28T08:44:28;8.10;;;5.23;;
39094;SDS011;24840;47.508;19.376;2023-02-28T08:46:54;5.50;;;3.50;;
39094;SDS011;24840;47.508;19.376;2023-02-28T08:49:19;6.97;;;3.07;;
39094;SDS011;24840;47.508;19.376;2023-02-28T08:51:45;5.87;;;3.40;;
39094;SDS011;24840;47.508;19.376;2023-02-28T08:54:11;5.43;;;3.53;;
39094;SDS011;24840;47.508;19.376;2023-02-28T08:56:44;5.77;;;3.73;;
39094;SDS011;24840;47.508;19.376;2023-02-28T08:59:12;6.23;;;3.90;;
39094;SDS011;24840;47.508;19.376;2023-02-28T09:01:38;5.47;;;3.80;;
39094;SDS011;24840;47.508;19.376;2023-02-28T09:04:03;4.53;;;3.20;;
39094;SDS011;24840;47.508;19.376;2023-02-28T09:06:32;7.63;;;3.70;;
39094;SDS011;24840;47.508;19.376;2023-02-28T09:08:58;6.07;;;3.67;;
39094;SDS011;24840;47.508;19.376;2023-02-28T09:11:24;6.97;;;4.17;;
39094;SDS011;24840;47.508;19.376;2023-02-28T09:13:50;6.13;;;3.40;;
39094;SDS011;24840;47.508;19.376;2023-02-28T09:16:16;4.60;;;2.40;;
39094;SDS011;24840;47.508;19.376;2023-02-28T09:18:42;8.00;;;3.87;;
39094;SDS011;24840;47.508;19.376;2023-02-28T09:21:10;17.63;;;7.70;;
39094;SDS011;24840;47.508;19.376;2023-02-28T09:23:39;6.73;;;3.97;;
39094;SDS011;24840;47.508;19.376;2023-02-28T09:26:11;6.23;;;4.13;;
39094;SDS011;24840;47.508;19.376;2023-02-28T09:28:39;6.30;;;3.60;;
39094;SDS011;24840;47.508;19.376;2023-02-28T09:31:05;4.37;;;2.93;;
39094;SDS011;24840;47.508;19.376;2023-02-28T09:33:31;5.20;;;3.77;;
39094;SDS011;24840;47.508;19.376;2023-02-28T09:36:00;6.50;;;4.40;;
39094;SDS011;24840;47.508;19.376;2023-02-28T09:38:26;6.13;;;4.23;;
39094;SDS011;24840;47.508;19.376;2023-02-28T09:40:53;7.93;;;5.33;;
39094;SDS011;24840;47.508;19.376;2023-02-28T09:43:27;3.90;;;3.17;;
39094;SDS011;24840;47.508;19.376;2023-02-28T09:49:05;5.73;;;4.33;;
39094;SDS011;24840;47.508;19.376;2023-02-28T09:54:27;5.37;;;4.53;;
39094;SDS011;24840;47.508;19.376;2023-02-28T09:56:59;9.60;;;4.97;;
39094;SDS011;24840;47.508;19.376;2023-02-28T09:59:39;5.97;;;4.50;;
39094;SDS011;24840;47.508;19.376;2023-02-28T10:05:24;5.13;;;4.13;;
39094;SDS011;24840;47.508;19.376;2023-02-28T10:15:58;9.57;;;5.43;;
39094;SDS011;24840;47.508;19.376;2023-02-28T10:18:51;8.33;;;5.50;;
39094;SDS011;24840;47.508;19.376;2023-02-28T10:21:28;6.90;;;5.57;;
39094;SDS011;24840;47.508;19.376;2023-02-28T10:24:02;6.13;;;4.97;;
39094;SDS011;24840;47.508;19.376;2023-02-28T10:26:34;8.40;;;4.90;;
39094;SDS011;24840;47.508;19.376;2023-02-28T10:29:01;7.63;;;5.30;;
39094;SDS011;24840;47.508;19.376;2023-02-28T10:31:28;8.03;;;4.70;;
39094;SDS011;24840;47.508;19.376;2023-02-28T10:33:54;10.47;;;7.20;;
39094;SDS011;24840;47.508;19.376;2023-02-28T10:36:20;7.80;;;5.37;;
39094;SDS011;24840;47.508;19.376;2023-02-28T10:38:47;9.77;;;6.63;;
39094;SDS011;24840;47.508;19.376;2023-02-28T10:41:14;11.37;;;5.73;;
39094;SDS011;24840;47.508;19.376;2023-02-28T10:44:11;14.97;;;5.73;;
39094;SDS011;24840;47.508;19.376;2023-02-28T10:46:40;4.70;;;3.93;;
39094;SDS011;24840;47.508;19.376;2023-02-28T10:49:12;6.07;;;4.28;;
39094;SDS011;24840;47.508;19.376;2023-02-28T10:51:54;7.57;;;4.45;;
39094;SDS011;24840;47.508;19.376;2023-02-28T10:54:26;6.75;;;5.07;;
39094;SDS011;24840;47.508;19.376;2023-02-28T10:57:05;7.25;;;5.15;;
39094;SDS011;24840;47.508;19.376;2023-02-28T10:59:32;7.78;;;5.18;;
39094;SDS011;24840;47.508;19.376;2023-02-28T11:01:57;7.07;;;5.45;;
39094;SDS011;24840;47.508;19.376;2023-02-28T11:07:01;9.65;;;5.95;;
39094;SDS011;24840;47.508;19.376;2023-02-28T11:09:39;6.45;;;4.95;;
39094;SDS011;24840;47.508;19.376;2023-02-28T11:12:10;7.80;;;4.30;;
39094;SDS011;24840;47.508;19.376;2023-02-28T11:14:47;6.53;;;4.03;;
39094;SDS011;24840;47.508;19.376;2023-02-28T11:17:20;6.25;;;4.25;;
39094;SDS011;24840;47.508;19.376;2023-02-28T11:19:55;6.85;;;4.70;;
39094;SDS011;24840;47.508;19.376;2023-02-28T11:22:29;7.38;;;4.30;;
39094;SDS011;24840;47.508;19.376;2023-02-28T11:25:07;7.68;;;5.18;;
39094;SDS011;24840;47.508;19.376;2023-02-28T11:27:46;7.83;;;4.93;;
39094;SDS011;24840;47.508;19.376;2023-02-28T11:30:25;8.52;;;4.97;;
39094;SDS011;24840;47.508;19.376;2023-02-28T11:32:52;8.30;;;6.15;;
39094;SDS011;24840;47.508;19.376;2023-02-28T11:35:32;5.63;;;4.80;;
39094;SDS011;24840;47.508;19.376;2023-02-28T11:40:39;4.82;;;4.10;;
39094;SDS011;24840;47.508;19.376;2023-02-28T11:46:16;6.65;;;5.00;;
39094;SDS011;24840;47.508;19.376;2023-02-28T11:49:02;6.37;;;4.63;;
39094;SDS011;24840;47.508;19.376;2023-02-28T11:52:00;7.20;;;5.17;;
39094;SDS011;24840;47.508;19.376;2023-02-28T11:59:56;8.83;;;5.33;;
39094;SDS011;24840;47.508;19.376;2023-02-28T12:16:34;8.07;;;4.83;;
39094;SDS011;24840;47.508;19.376;2023-02-28T12:19:18;6.35;;;5.05;;
39094;SDS011;24840;47.508;19.376;2023-02-28T12:24:29;8.85;;;4.85;;
39094;SDS011;24840;47.508;19.376;2023-02-28T12:27:15;7.65;;;5.65;;
39094;SDS011;24840;47.508;19.376;2023-02-28T12:29:54;10.47;;;5.27;;
39094;SDS011;24840;47.508;19.376;2023-02-28T12:32:31;8.77;;;6.67;;
39094;SDS011;24840;47.508;19.376;2023-02-28T12:35:00;9.18;;;6.35;;
39094;SDS011;24840;47.508;19.376;2023-02-28T12:37:40;7.57;;;6.13;;
39094;SDS011;24840;47.508;19.376;2023-02-28T12:40:27;9.75;;;6.13;;
39094;SDS011;24840;47.508;19.376;2023-02-28T12:43:07;8.40;;;6.50;;
39094;SDS011;24840;47.508;19.376;2023-02-28T12:48:08;10.32;;;6.68;;
39094;SDS011;24840;47.508;19.376;2023-02-28T12:50:40;7.78;;;6.80;;
39094;SDS011;24840;47.508;19.376;2023-02-28T12:53:13;11.75;;;6.75;;
39094;SDS011;24840;47.508;19.376;2023-02-28T12:58:38;9.50;;;6.07;;
39094;SDS011;24840;47.508;19.376;2023-02-28T13:01:14;7.93;;;6.63;;
39094;SDS011;24840;47.508;19.376;2023-02-28T13:06:53;8.52;;;6.07;;
39094;SDS011;24840;47.508;19.376;2023-02-28T13:12:16;10.48;;;6.22;;
39094;SDS011;24840;47.508;19.376;2023-02-28T13:14:42;9.35;;;7.00;;
39094;SDS011;24840;47.508;19.376;2023-02-28T13:19:38;10.30;;;7.00;;
39094;SDS011;24840;47.508;19.376;2023-02-28T13:22:37;8.98;;;5.95;;
39094;SDS011;24840;47.508;19.376;2023-02-28T13:27:48;7.85;;;5.78;;
39094;SDS011;24840;47.508;19.376;2023-02-28T13:35:45;30.13;;;8.55;;
39094;SDS011;24840;47.508;19.376;2023-02-28T13:38:13;8.50;;;5.25;;
39094;SDS011;24840;47.508;19.376;2023-02-28T13:40:42;14.02;;;7.35;;
39094;SDS011;24840;47.508;19.376;2023-02-28T13:43:08;8.73;;;5.78;;
39094;SDS011;24840;47.508;19.376;2023-02-28T13:45:34;7.75;;;5.63;;
39094;SDS011;24840;47.508;19.376;2023-02-28T13:48:17;8.45;;;6.30;;
39094;SDS011;24840;47.508;19.376;2023-02-28T13:50:44;11.30;;;6.18;;
39094;SDS011;24840;47.508;19.376;2023-02-28T13:55:52;8.48;;;5.95;;
39094;SDS011;24840;47.508;19.376;2023-02-28T14:03:55;7.78;;;6.32;;
39094;SDS011;24840;47.508;19.376;2023-02-28T14:06:38;12.23;;;6.43;;
39094;SDS011;24840;47.508;19.376;2023-02-28T14:15:04;38.53;;;8.70;;
39094;SDS011;24840;47.508;19.376;2023-02-28T14:17:51;14.20;;;6.68;;
39094;SDS011;24840;47.508;19.376;2023-02-28T14:20:20;9.65;;;5.90;;
39094;SDS011;24840;47.508;19.376;2023-02-28T14:28:50;11.20;;;6.60;;
39094;SDS011;24840;47.508;19.376;2023-02-28T14:37:36;10.63;;;7.00;;
39094;SDS011;24840;47.508;19.376;2023-02-28T14:40:11;9.17;;;6.80;;
39094;SDS011;24840;47.508;19.376;2023-02-28T14:42:45;9.90;;;6.10;;
39094;SDS011;24840;47.508;19.376;2023-02-28T14:45:23;9.10;;;6.27;;
39094;SDS011;24840;47.508;19.376;2023-02-28T14:47:49;8.07;;;6.33;;
39094;SDS011;24840;47.508;19.376;2023-02-28T14:50:21;9.37;;;6.57;;
39094;SDS011;24840;47.508;19.376;2023-02-28T14:55:21;8.67;;;6.60;;
39094;SDS011;24840;47.508;19.376;2023-02-28T14:57:52;13.33;;;8.87;;
39094;SDS011;24840;47.508;19.376;2023-02-28T15:00:46;11.53;;;9.07;;
39094;SDS011;24840;47.508;19.376;2023-02-28T15:03:35;11.23;;;9.63;;
39094;SDS011;24840;47.508;19.376;2023-02-28T15:06:02;8.83;;;6.80;;
39094;SDS011;24840;47.508;19.376;2023-02-28T15:08:37;7.70;;;6.27;;
39094;SDS011;24840;47.508;19.376;2023-02-28T15:19:06;8.40;;;6.17;;
39094;SDS011;24840;47.508;19.376;2023-02-28T15:21:39;10.57;;;5.93;;
39094;SDS011;24840;47.508;19.376;2023-02-28T15:24:13;9.93;;;6.47;;
39094;SDS011;24840;47.508;19.376;2023-02-28T15:26:50;11.27;;;6.27;;
39094;SDS011;24840;47.508;19.376;2023-02-28T15:29:21;11.38;;;6.65;;
39094;SDS011;24840;47.508;19.376;2023-02-28T15:31:50;7.67;;;6.13;;
39094;SDS011;24840;47.508;19.376;2023-02-28T15:34:42;12.30;;;7.90;;
39094;SDS011;24840;47.508;19.376;2023-02-28T15:39:55;9.33;;;7.37;;
39094;SDS011;24840;47.508;19.376;2023-02-28T15:42:30;9.90;;;6.87;;
39094;SDS011;24840;47.508;19.376;2023-02-28T15:44:56;10.20;;;7.77;;
39094;SDS011;24840;47.508;19.376;2023-02-28T15:47:24;8.80;;;7.13;;
39094;SDS011;24840;47.508;19.376;2023-02-28T15:52:33;12.07;;;7.30;;
39094;SDS011;24840;47.508;19.376;2023-02-28T15:55:17;10.13;;;7.20;;
39094;SDS011;24840;47.508;19.376;2023-02-28T15:57:46;9.90;;;7.27;;
39094;SDS011;24840;47.508;19.376;2023-02-28T16:00:18;10.73;;;6.67;;
39094;SDS011;24840;47.508;19.376;2023-02-28T16:02:50;7.90;;;7.07;;
39094;SDS011;24840;47.508;19.376;2023-02-28T16:05:18;10.40;;;7.47;;
39094;SDS011;24840;47.508;19.376;2023-02-28T16:07:45;8.93;;;6.23;;
39094;SDS011;24840;47.508;19.376;2023-02-28T16:10:13;10.43;;;6.37;;
39094;SDS011;24840;47.508;19.376;2023-02-28T16:12:39;9.20;;;7.33;;
39094;SDS011;24840;47.508;19.376;2023-02-28T16:15:07;8.40;;;6.60;;
39094;SDS011;24840;47.508;19.376;2023-02-28T16:17:54;9.33;;;6.83;;
39094;SDS011;24840;47.508;19.376;2023-02-28T16:20:21;13.03;;;7.23;;
39094;SDS011;24840;47.508;19.376;2023-02-28T16:22:49;11.17;;;8.57;;
39094;SDS011;24840;47.508;19.376;2023-02-28T16:25:16;11.80;;;8.60;;
39094;SDS011;24840;47.508;19.376;2023-02-28T16:27:44;11.70;;;7.77;;
39094;SDS011;24840;47.508;19.376;2023-02-28T16:30:22;19.63;;;9.70;;
39094;SDS011;24840;47.508;19.376;2023-02-28T16:32:50;11.00;;;7.57;;
39094;SDS011;24840;47.508;19.376;2023-02-28T16:35:16;29.33;;;10.03;;
39094;SDS011;24840;47.508;19.376;2023-02-28T16:37:43;13.60;;;7.80;;
39094;SDS011;24840;47.508;19.376;2023-02-28T16:40:20;9.23;;;7.37;;
39094;SDS011;24840;47.508;19.376;2023-02-28T16:42:49;10.63;;;8.20;;
39094;SDS011;24840;47.508;19.376;2023-02-28T16:45:24;11.23;;;7.03;;
39094;SDS011;24840;47.508;19.376;2023-02-28T16:47:51;10.33;;;6.63;;
39094;SDS011;24840;47.508;19.376;2023-02-28T16:50:18;9.67;;;6.97;;
39094;SDS011;24840;47.508;19.376;2023-02-28T16:52:49;8.93;;;7.87;;
39094;SDS011;24840;47.508;19.376;2023-02-28T16:55:17;12.80;;;7.77;;
39094;SDS011;24840;47.508;19.376;2023-02-28T16:57:44;12.53;;;9.17;;
39094;SDS011;24840;47.508;19.376;2023-02-28T17:00:15;26.23;;;16.87;;
39094;SDS011;24840;47.508;19.376;2023-02-28T17:02:40;86.57;;;48.20;;
39094;SDS011;24840;47.508;19.376;2023-02-28T17:05:08;85.47;;;54.00;;
39094;SDS011;24840;47.508;19.376;2023-02-28T17:07:37;60.30;;;22.10;;
39094;SDS011;24840;47.508;19.376;2023-02-28T17:10:10;29.00;;;20.47;;
39094;SDS011;24840;47.508;19.376;2023-02-28T17:12:45;17.87;;;13.57;;